Amsterdam — PBAD — position and weather

sailwx.info

Track history (hours):
 
Tides and Currents Weather Stations Pressure Air Temp Water Temp Dewpoint Dewpoint Depression Visibility Wind Speed Wind Dir Waves Ship Positions

Amsterdam

Operator: Holland America Line

Last reported at 2015-Aug-30 13:31 UTC. Time now 2015-Aug-30 14:04 UTC.
Position N 47°38' W 122°23'.

Type: Ship. MMSI: 244370000.

Date/timePositionNaut miles runAvg speedWind from/ knotsBaromVisibWave heightAir tempDewpointWater temp
2015-Aug-30 13:31N 47°38' W 122°23'1 1.5
2015-Aug-30 12:33N 47°37' W 122°25'1414.0
2015-Aug-30 11:33N 47°51' W 122°29'1615.5
2015-Aug-30 10:34N 48°05' W 122°40'1515.1
2015-Aug-30 09:33N 48°12' W 123°00'1615.3
2015-Aug-30 08:32N 48°10' W 123°24'1313.1
2015-Aug-30 07:33N 48°23' W 123°25'2 2.0
2015-Aug-30 06:33N 48°25' W 123°23'0 0.0
2015-Aug-30 05:33N 48°25' W 123°23'0 0.0
2015-Aug-30 04:33N 48°25' W 123°23'0 0.0
2015-Aug-30 03:33N 48°25' W 123°23'0 0.0
2015-Aug-30 02:30N 48°25' W 123°23'0 0.0
2015-Aug-30 01:33N 48°25' W 123°23'7 7.2
2015-Aug-30 00:34N 48°18' W 123°25'2121.2
2015-Aug-29 23:33N 48°14' W 123°57'4623.2
2015-Aug-29 21:33N 48°29' W 125°03'2121.5
2015-Aug-29 20:34N 48°37' W 125°33'2221.9
2015-Aug-29 19:34N 48°49' W 126°01'2120.9
2015-Aug-29 18:34N 49°02' W 126°26'9320.4
2015-Aug-29 14:00N 50°00' W 128°18'38514.3 140 / 3992.5 5.4 18.2
2015-Aug-28 11:00N 55°54' W 132°30'10013.1 110 / 151000.0 5.4 1.013.013.016.0
2015-Aug-28 03:21N 56°23' W 135°22'1316.0
2015-Aug-28 02:33N 56°35' W 135°31'1615.7
2015-Aug-28 01:33N 56°50' W 135°40'1414.2
2015-Aug-28 00:33N 57°01' W 135°23'3 2.5
2015-Aug-27 23:32N 57°03' W 135°19'0 0.0
2015-Aug-27 22:32N 57°02' W 135°19'0 0.0
2015-Aug-27 21:32N 57°03' W 135°19'0 0.0
2015-Aug-27 20:32N 57°03' W 135°19'0 0.0
2015-Aug-27 19:32N 57°03' W 135°19'0 0.0
2015-Aug-27 18:32N 57°03' W 135°19'0 0.0
2015-Aug-27 17:32N 57°03' W 135°19'0 0.0
2015-Aug-27 16:32N 57°03' W 135°19'0 0.0
2015-Aug-27 15:33N 57°03' W 135°19'6 5.9
2015-Aug-27 14:34N 56°60' W 135°29'1914.2
2015-Aug-27 13:15N 57°02' W 136°03'3314.6
2015-Aug-27 11:00N 57°30' W 136°36'5415.6 220 / 151014.010.8 1.014.012.318.0
2015-Aug-27 07:33N 58°19' W 135°57'1918.7
2015-Aug-27 06:33N 58°13' W 135°23'59 2.4
2015-Aug-26 06:00N 57°42' W 133°48'22511.3 100 / 111019.610.8 0.511.7 12.0
2015-Aug-25 10:00N 54°36' W 137°36'45822.9 080 / 251013.010.8 1.514.511.917.0
2015-Aug-24 14:00N 49°48' W 127°54'2716.0 340 / 131017.410.8 13.9
2015-Aug-24 12:17N 49°31' W 127°20'1318.4
2015-Aug-24 11:33N 49°23' W 127°04'1818.7
2015-Aug-24 10:33N 49°11' W 126°42'1918.6
2015-Aug-24 09:33N 48°59' W 126°21'1526.0
2015-Aug-24 09:00N 48°48' W 126°06'511.3 310 / 271015.027.0 2.015.011.615.0
2015-Aug-24 08:33N 48°47' W 125°59'1918.6
2015-Aug-24 07:33N 48°38' W 125°34'1918.5
2015-Aug-24 06:33N 48°31' W 125°08'5618.4
2015-Aug-24 03:31N 48°16' W 123°47'578811084.2
2015-Aug-24 03:00S 48°12' W 123°30'578313311.0 290 / 401011.627.0 2.514.813.514.6
2015-Aug-24 02:33N 48°11' W 123°23'1515.3
2015-Aug-24 01:33N 48°12' W 122°60'1817.8
2015-Aug-24 00:33N 48°02' W 122°38'2019.6
2015-Aug-23 23:33N 47°44' W 122°26'7 6.9
2015-Aug-23 22:32N 47°38' W 122°23'0 0.0
2015-Aug-23 21:32N 47°38' W 122°23'0 0.0
2015-Aug-23 20:32N 47°38' W 122°23'0 0.0
2015-Aug-23 19:32N 47°38' W 122°23'0 0.0
2015-Aug-23 18:32N 47°38' W 122°23'0 0.0
2015-Aug-23 17:32N 47°38' W 122°23'0 0.0
2015-Aug-23 16:32N 47°38' W 122°23'0 0.0
2015-Aug-23 15:32N 47°38' W 122°23'0 0.0
2015-Aug-23 14:32N 47°38' W 122°23'0 0.0
2015-Aug-23 13:33N 47°38' W 122°23'5 5.4
2015-Aug-23 12:33N 47°42' W 122°28'1313.4
2015-Aug-23 11:33N 47°55' W 122°30'1313.3
2015-Aug-23 10:34N 48°07' W 122°40'916.1
2015-Aug-23 10:00N 48°06' W 122°54'818.3 260 / 71015.010.8 0.514.511.916.0
2015-Aug-23 09:33N 48°12' W 123°02'1615.8
2015-Aug-23 08:33N 48°11' W 123°26'9 9.5
2015-Aug-23 07:33N 48°20' W 123°26'5 4.9
2015-Aug-23 06:33N 48°25' W 123°23'0 0.0
2015-Aug-23 05:31N 48°25' W 123°23'0 0.0
2015-Aug-23 04:28N 48°25' W 123°23'0 0.0
2015-Aug-23 03:31N 48°25' W 123°23'0 0.0
2015-Aug-23 02:31N 48°25' W 123°23'0 0.0
2015-Aug-23 01:31N 48°25' W 123°23'1 1.3
2015-Aug-23 00:33N 48°24' W 123°25'1313.1
2015-Aug-22 23:33N 48°14' W 123°37'2020.0
2015-Aug-22 22:33N 48°17' W 124°06'2020.4
2015-Aug-22 21:33N 48°26' W 124°34'2020.3
2015-Aug-22 20:33N 48°29' W 125°04'2019.7
2015-Aug-22 19:33N 48°37' W 125°31'2120.6
2015-Aug-22 18:33N 48°47' W 125°58'2120.9
2015-Aug-22 17:33N 49°01' W 126°23'2121.1
2015-Aug-22 16:33N 49°14' W 126°48'2221.0
2015-Aug-22 15:30N 49°28' W 127°14'12122.0
2015-Aug-22 10:00N 51°00' W 129°18'6421.3 190 / 201016.010.8 1.516.014.418.0
2015-Aug-22 07:00N 52°00' W 129°54'63481269.7 240 / 151017.010.8 0.515.0 16.7
2015-Aug-22 02:00S 53°48' W 130°54'6589411.8 130 / 81016.910.8 14.813.815.0
2015-Aug-21 10:00N 56°00' W 132°42'9213.5 250 / 61016.010.8 0.514.012.317.0
2015-Aug-21 03:12N 56°23' W 135°22'2 7.9
2015-Aug-21 03:00N 56°24' W 135°24'921.7 310 / 131016.410.8 0.516.014.018.1
2015-Aug-21 02:33N 56°33' W 135°30'1717.3
2015-Aug-21 01:33N 56°49' W 135°40'1514.9
2015-Aug-21 00:33N 57°01' W 135°23'2 2.5
2015-Aug-20 23:33N 57°03' W 135°19'0 0.0
2015-Aug-20 22:33N 57°03' W 135°19'0 0.0
2015-Aug-20 21:33N 57°03' W 135°19'0 0.0
2015-Aug-20 20:33N 57°03' W 135°19'0 0.0
2015-Aug-20 19:33N 57°03' W 135°19'0 0.0
2015-Aug-20 18:33N 57°03' W 135°19'0 0.0
2015-Aug-20 17:33N 57°03' W 135°19'0 0.0
2015-Aug-20 16:33N 57°03' W 135°19'0 0.0
2015-Aug-20 15:33N 57°03' W 135°19'5 5.1
2015-Aug-20 14:34N 57°00' W 135°28'1616.0
2015-Aug-20 13:34N 56°59' W 135°57'  
Track history (hours):
 
Tides and Currents Weather Stations Pressure Air Temp Water Temp Dewpoint Dewpoint Depression Visibility Wind Speed Wind Dir Waves Ship Positions

Amsterdam

Operator: Holland America Line

Last reported at 2015-Aug-30 13:31 UTC. Time now 2015-Aug-30 14:04 UTC.
Position N 47°38' W 122°23'.

Type: Ship. MMSI: 244370000.

Date/timePositionNaut miles runAvg speedWind from/ knotsBaromVisibWave heightAir tempDewpointWater temp
2015-Aug-30 13:31N 47°38' W 122°23'1 1.5
2015-Aug-30 12:33N 47°37' W 122°25'1414.0
2015-Aug-30 11:33N 47°51' W 122°29'1615.5
2015-Aug-30 10:34N 48°05' W 122°40'1515.1
2015-Aug-30 09:33N 48°12' W 123°00'1615.3
2015-Aug-30 08:32N 48°10' W 123°24'1313.1
2015-Aug-30 07:33N 48°23' W 123°25'2 2.0
2015-Aug-30 06:33N 48°25' W 123°23'0 0.0
2015-Aug-30 05:33N 48°25' W 123°23'0 0.0
2015-Aug-30 04:33N 48°25' W 123°23'0 0.0
2015-Aug-30 03:33N 48°25' W 123°23'0 0.0
2015-Aug-30 02:30N 48°25' W 123°23'0 0.0
2015-Aug-30 01:33N 48°25' W 123°23'7 7.2
2015-Aug-30 00:34N 48°18' W 123°25'2121.2
2015-Aug-29 23:33N 48°14' W 123°57'4623.2
2015-Aug-29 21:33N 48°29' W 125°03'2121.5
2015-Aug-29 20:34N 48°37' W 125°33'2221.9
2015-Aug-29 19:34N 48°49' W 126°01'2120.9
2015-Aug-29 18:34N 49°02' W 126°26'9320.4
2015-Aug-29 14:00N 50°00' W 128°18'38514.3 140 / 3992.5 5.4 18.2
2015-Aug-28 11:00N 55°54' W 132°30'10013.1 110 / 151000.0 5.4 1.013.013.016.0
2015-Aug-28 03:21N 56°23' W 135°22'1316.0
2015-Aug-28 02:33N 56°35' W 135°31'1615.7
2015-Aug-28 01:33N 56°50' W 135°40'1414.2
2015-Aug-28 00:33N 57°01' W 135°23'3 2.5
2015-Aug-27 23:32N 57°03' W 135°19'0 0.0
2015-Aug-27 22:32N 57°02' W 135°19'0 0.0
2015-Aug-27 21:32N 57°03' W 135°19'0 0.0
2015-Aug-27 20:32N 57°03' W 135°19'0 0.0
2015-Aug-27 19:32N 57°03' W 135°19'0 0.0
2015-Aug-27 18:32N 57°03' W 135°19'0 0.0
2015-Aug-27 17:32N 57°03' W 135°19'0 0.0
2015-Aug-27 16:32N 57°03' W 135°19'0 0.0
2015-Aug-27 15:33N 57°03' W 135°19'6 5.9
2015-Aug-27 14:34N 56°60' W 135°29'1914.2
2015-Aug-27 13:15N 57°02' W 136°03'3314.6
2015-Aug-27 11:00N 57°30' W 136°36'5415.6 220 / 151014.010.8 1.014.012.318.0
2015-Aug-27 07:33N 58°19' W 135°57'1918.7
2015-Aug-27 06:33N 58°13' W 135°23'59 2.4
2015-Aug-26 06:00N 57°42' W 133°48'22511.3 100 / 111019.610.8 0.511.7 12.0
2015-Aug-25 10:00N 54°36' W 137°36'45822.9 080 / 251013.010.8 1.514.511.917.0
2015-Aug-24 14:00N 49°48' W 127°54'2716.0 340 / 131017.410.8 13.9
2015-Aug-24 12:17N 49°31' W 127°20'1318.4
2015-Aug-24 11:33N 49°23' W 127°04'1818.7
2015-Aug-24 10:33N 49°11' W 126°42'1918.6
2015-Aug-24 09:33N 48°59' W 126°21'1526.0
2015-Aug-24 09:00N 48°48' W 126°06'511.3 310 / 271015.027.0 2.015.011.615.0
2015-Aug-24 08:33N 48°47' W 125°59'1918.6
2015-Aug-24 07:33N 48°38' W 125°34'1918.5
2015-Aug-24 06:33N 48°31' W 125°08'5618.4
2015-Aug-24 03:31N 48°16' W 123°47'578811084.2
2015-Aug-24 03:00S 48°12' W 123°30'578313311.0 290 / 401011.627.0 2.514.813.514.6
2015-Aug-24 02:33N 48°11' W 123°23'1515.3
2015-Aug-24 01:33N 48°12' W 122°60'1817.8
2015-Aug-24 00:33N 48°02' W 122°38'2019.6
2015-Aug-23 23:33N 47°44' W 122°26'7 6.9
2015-Aug-23 22:32N 47°38' W 122°23'0 0.0
2015-Aug-23 21:32N 47°38' W 122°23'0 0.0
2015-Aug-23 20:32N 47°38' W 122°23'0 0.0
2015-Aug-23 19:32N 47°38' W 122°23'0 0.0
2015-Aug-23 18:32N 47°38' W 122°23'0 0.0
2015-Aug-23 17:32N 47°38' W 122°23'0 0.0
2015-Aug-23 16:32N 47°38' W 122°23'0 0.0
2015-Aug-23 15:32N 47°38' W 122°23'0 0.0
2015-Aug-23 14:32N 47°38' W 122°23'0 0.0
2015-Aug-23 13:33N 47°38' W 122°23'5 5.4
2015-Aug-23 12:33N 47°42' W 122°28'1313.4
2015-Aug-23 11:33N 47°55' W 122°30'1313.3
2015-Aug-23 10:34N 48°07' W 122°40'916.1
2015-Aug-23 10:00N 48°06' W 122°54'818.3 260 / 71015.010.8 0.514.511.916.0
2015-Aug-23 09:33N 48°12' W 123°02'1615.8
2015-Aug-23 08:33N 48°11' W 123°26'9 9.5
2015-Aug-23 07:33N 48°20' W 123°26'5 4.9
2015-Aug-23 06:33N 48°25' W 123°23'0 0.0
2015-Aug-23 05:31N 48°25' W 123°23'0 0.0
2015-Aug-23 04:28N 48°25' W 123°23'0 0.0
2015-Aug-23 03:31N 48°25' W 123°23'0 0.0
2015-Aug-23 02:31N 48°25' W 123°23'0 0.0
2015-Aug-23 01:31N 48°25' W 123°23'1 1.3
2015-Aug-23 00:33N 48°24' W 123°25'1313.1
2015-Aug-22 23:33N 48°14' W 123°37'2020.0
2015-Aug-22 22:33N 48°17' W 124°06'2020.4
2015-Aug-22 21:33N 48°26' W 124°34'2020.3
2015-Aug-22 20:33N 48°29' W 125°04'2019.7
2015-Aug-22 19:33N 48°37' W 125°31'2120.6
2015-Aug-22 18:33N 48°47' W 125°58'2120.9
2015-Aug-22 17:33N 49°01' W 126°23'2121.1
2015-Aug-22 16:33N 49°14' W 126°48'2221.0
2015-Aug-22 15:30N 49°28' W 127°14'12122.0
2015-Aug-22 10:00N 51°00' W 129°18'6421.3 190 / 201016.010.8 1.516.014.418.0
2015-Aug-22 07:00N 52°00' W 129°54'63481269.7 240 / 151017.010.8 0.515.0 16.7
2015-Aug-22 02:00S 53°48' W 130°54'6589411.8 130 / 81016.910.8 14.813.815.0
2015-Aug-21 10:00N 56°00' W 132°42'9213.5 250 / 61016.010.8 0.514.012.317.0
2015-Aug-21 03:12N 56°23' W 135°22'2 7.9
2015-Aug-21 03:00N 56°24' W 135°24'921.7 310 / 131016.410.8 0.516.014.018.1
2015-Aug-21 02:33N 56°33' W 135°30'1717.3
2015-Aug-21 01:33N 56°49' W 135°40'1514.9
2015-Aug-21 00:33N 57°01' W 135°23'2 2.5
2015-Aug-20 23:33N 57°03' W 135°19'0 0.0
2015-Aug-20 22:33N 57°03' W 135°19'0 0.0
2015-Aug-20 21:33N 57°03' W 135°19'0 0.0
2015-Aug-20 20:33N 57°03' W 135°19'0 0.0
2015-Aug-20 19:33N 57°03' W 135°19'0 0.0
2015-Aug-20 18:33N 57°03' W 135°19'0 0.0
2015-Aug-20 17:33N 57°03' W 135°19'0 0.0
2015-Aug-20 16:33N 57°03' W 135°19'0 0.0
2015-Aug-20 15:33N 57°03' W 135°19'5 5.1
2015-Aug-20 14:34N 57°00' W 135°28'1616.0
2015-Aug-20 13:34N 56°59' W 135°57'  

Dump ship's entire track history